createdAt,value
2023-04-24T00:01:10.024Z,100103.59
2023-04-24T00:03:38.150Z,100100.38
2023-04-24T00:06:06.335Z,100103.03
2023-04-24T00:08:33.994Z,100106.59
2023-04-24T00:11:01.006Z,100110.50
2023-04-24T00:13:29.409Z,100110.44
2023-04-24T00:15:56.958Z,100103.91
2023-04-24T00:18:23.624Z,100099.31
2023-04-24T00:20:50.312Z,100107.38
2023-04-24T00:23:16.939Z,100108.00
2023-04-24T00:25:43.713Z,100105.94
2023-04-24T00:28:10.370Z,100109.25
2023-04-24T00:30:37.339Z,100113.88
2023-04-24T00:33:04.227Z,100100.34
2023-04-24T00:35:31.083Z,100101.84
2023-04-24T00:37:57.764Z,100104.84
2023-04-24T00:40:24.447Z,100100.00
2023-04-24T00:42:51.211Z,100096.44
2023-04-24T00:45:18.294Z,100093.69
2023-04-24T00:47:46.421Z,100092.06
2023-04-24T00:50:15.458Z,100091.97
2023-04-24T00:52:42.253Z,100097.00
2023-04-24T00:55:09.645Z,100100.81
2023-04-24T00:57:36.716Z,100096.00
2023-04-24T01:00:04.704Z,100091.53
2023-04-24T01:02:31.518Z,100093.03
2023-04-24T01:04:58.517Z,100087.88
2023-04-24T01:07:26.209Z,100103.16
2023-04-24T01:09:53.213Z,100098.41
2023-04-24T01:12:20.832Z,100099.59
2023-04-24T01:14:47.512Z,100097.50
2023-04-24T01:17:14.236Z,100096.53
2023-04-24T01:19:41.537Z,100096.91
2023-04-24T01:22:17.329Z,100095.28
2023-04-24T01:24:44.307Z,100103.47
2023-04-24T01:27:11.731Z,100108.50
2023-04-24T01:29:38.602Z,100102.97
2023-04-24T01:32:06.252Z,100104.16
2023-04-24T01:34:33.538Z,100105.75
2023-04-24T01:37:00.483Z,100105.75
2023-04-24T01:39:29.570Z,100118.03
2023-04-24T01:41:57.266Z,100121.59
2023-04-24T01:44:24.740Z,100120.91
2023-04-24T01:46:51.707Z,100107.56
2023-04-24T01:49:18.687Z,100107.28
2023-04-24T01:51:45.988Z,100103.84
2023-04-24T01:54:12.878Z,100116.47
2023-04-24T01:56:43.581Z,100114.19
2023-04-24T01:59:13.739Z,100120.03
2023-04-24T02:01:40.763Z,100124.41
2023-04-24T02:04:08.940Z,100120.59
2023-04-24T02:06:36.280Z,100124.16
2023-04-24T02:09:04.248Z,100116.69
2023-04-24T02:11:31.268Z,100121.06
2023-04-24T02:13:59.129Z,100121.50
2023-04-24T02:16:26.041Z,100121.63
2023-04-24T02:18:52.971Z,100125.66
2023-04-24T02:21:19.622Z,100127.25
2023-04-24T02:23:46.328Z,100125.31
2023-04-24T02:26:13.121Z,100128.84
2023-04-24T02:28:39.831Z,100129.34
2023-04-24T02:31:07.344Z,100128.97
2023-04-24T02:33:34.244Z,100131.41
2023-04-24T02:36:01.034Z,100127.03
2023-04-24T02:38:27.872Z,100138.50
2023-04-24T02:40:54.695Z,100139.31
2023-04-24T02:43:21.620Z,100142.19
2023-04-24T02:45:48.556Z,100134.38
2023-04-24T02:48:15.450Z,100147.13
2023-04-24T02:50:42.123Z,100150.00
2023-04-24T02:53:08.760Z,100144.94
2023-04-24T02:55:35.545Z,100153.66
2023-04-24T02:58:02.209Z,100154.03
2023-04-24T03:00:37.220Z,100148.63
2023-04-24T03:03:04.149Z,100157.22
2023-04-24T03:05:32.059Z,100150.91
2023-04-24T03:07:58.944Z,100155.72
2023-04-24T03:10:25.878Z,100150.22
2023-04-24T03:12:52.561Z,100159.66
2023-04-24T03:15:19.497Z,100152.16
2023-04-24T03:17:46.330Z,100149.53
2023-04-24T03:20:13.308Z,100152.28
2023-04-24T03:22:40.190Z,100165.28
2023-04-24T03:25:07.280Z,100158.94
2023-04-24T03:27:33.966Z,100154.59
2023-04-24T03:30:09.706Z,100152.97
2023-04-24T03:32:36.380Z,100157.22
2023-04-24T03:35:03.403Z,100157.22
2023-04-24T03:37:31.085Z,100154.84
2023-04-24T03:39:57.710Z,100151.59
2023-04-24T03:42:24.422Z,100148.38
2023-04-24T03:44:51.218Z,100145.88
2023-04-24T03:47:17.908Z,100149.75
2023-04-24T03:49:44.756Z,100150.13
2023-04-24T03:52:11.616Z,100145.53
2023-04-24T03:54:38.351Z,100154.16
2023-04-24T03:57:05.815Z,100153.22
2023-04-24T03:59:32.516Z,100150.03
2023-04-24T04:01:59.248Z,100158.75
2023-04-24T04:04:26.418Z,100154.84
2023-04-24T04:06:53.248Z,100154.03
2023-04-24T04:09:20.154Z,100150.84
2023-04-24T04:11:46.842Z,100152.09
2023-04-24T04:14:13.450Z,100158.28
2023-04-24T04:16:42.558Z,100160.94
2023-04-24T04:19:09.518Z,100163.91
2023-04-24T04:21:36.307Z,100152.78
2023-04-24T04:24:03.086Z,100163.00
2023-04-24T04:26:32.946Z,100162.19
2023-04-24T04:29:01.705Z,100162.88
2023-04-24T04:31:28.453Z,100159.19
2023-04-24T04:33:55.158Z,100165.84
2023-04-24T04:36:21.925Z,100179.84
2023-04-24T04:38:49.490Z,100172.50
2023-04-24T04:41:17.903Z,100186.38
2023-04-24T04:43:44.671Z,100186.25
2023-04-24T04:46:12.291Z,100188.09
2023-04-24T04:48:39.129Z,100199.31
2023-04-24T04:51:06.030Z,100194.94
2023-04-24T04:53:32.713Z,100205.97
2023-04-24T04:55:59.360Z,100213.31
2023-04-24T04:58:26.375Z,100211.59
2023-04-24T05:00:53.347Z,100217.44
2023-04-24T05:03:21.682Z,100211.78
2023-04-24T05:05:48.724Z,100226.00
2023-04-24T05:10:44.951Z,100228.78
2023-04-24T05:13:14.001Z,100225.75
2023-04-24T05:15:40.805Z,100221.59
2023-04-24T05:18:07.698Z,100232.34
2023-04-24T05:20:34.531Z,100237.56
2023-04-24T05:23:01.527Z,100243.59
2023-04-24T05:25:28.182Z,100238.63
2023-04-24T05:27:55.131Z,100244.66
2023-04-24T05:30:21.936Z,100248.59
2023-04-24T05:32:48.844Z,100246.69
2023-04-24T05:35:15.746Z,100255.47
2023-04-24T05:37:42.420Z,100260.56
2023-04-24T05:40:10.023Z,100263.34
2023-04-24T05:42:36.710Z,100268.56
2023-04-24T05:45:04.161Z,100273.41
2023-04-24T05:47:30.916Z,100274.41
2023-04-24T05:49:57.831Z,100268.75
2023-04-24T05:52:24.508Z,100279.28
2023-04-24T05:54:51.508Z,100290.28
2023-04-24T05:57:18.158Z,100290.59
2023-04-24T05:59:44.996Z,100294.63
2023-04-24T06:02:13.872Z,100300.13
2023-04-24T06:04:41.204Z,100307.25
2023-04-24T06:07:08.309Z,100308.69
2023-04-24T06:09:35.113Z,100305.94
2023-04-24T06:12:01.841Z,100313.03
2023-04-24T06:14:28.474Z,100327.13
2023-04-24T06:16:55.185Z,100319.88
2023-04-24T06:19:21.892Z,100328.25
2023-04-24T06:21:48.613Z,100334.09
2023-04-24T06:24:17.221Z,100336.38
2023-04-24T06:26:44.029Z,100341.03
2023-04-24T06:29:10.921Z,100346.06
2023-04-24T06:31:38.355Z,100345.56
2023-04-24T06:34:05.274Z,100357.38
2023-04-24T06:36:32.350Z,100349.66
2023-04-24T06:38:59.078Z,100356.09
2023-04-24T06:41:26.121Z,100362.56
2023-04-24T06:43:52.853Z,100362.09
2023-04-24T06:46:19.643Z,100369.06
2023-04-24T06:48:46.372Z,100379.53
2023-04-24T06:51:14.219Z,100376.78
2023-04-24T06:53:40.988Z,100375.19
2023-04-24T06:56:07.995Z,100371.16
2023-04-24T06:58:34.785Z,100379.53
2023-04-24T07:01:01.542Z,100373.56
2023-04-24T07:03:28.951Z,100375.50
2023-04-24T07:05:56.097Z,100389.59
2023-04-24T07:08:23.147Z,100392.31
2023-04-24T07:10:51.765Z,100389.59
2023-04-24T07:13:18.608Z,100402.19
2023-04-24T07:15:45.549Z,100386.19
2023-04-24T07:18:13.589Z,100403.50
2023-04-24T07:20:41.904Z,100400.41
2023-04-24T07:23:08.658Z,100406.06
2023-04-24T07:25:35.442Z,100414.97
2023-04-24T07:28:03.067Z,100409.47
2023-04-24T07:30:30.227Z,100416.56
2023-04-24T07:32:57.407Z,100424.16
2023-04-24T07:35:26.418Z,100427.41
2023-04-24T07:37:54.659Z,100425.31
2023-04-24T07:40:21.614Z,100425.16
2023-04-24T07:42:49.538Z,100433.22
2023-04-24T07:45:16.436Z,100433.88
2023-04-24T07:47:45.014Z,100434.50
2023-04-24T07:50:12.057Z,100430.81
2023-04-24T07:52:38.740Z,100432.72
2023-04-24T07:55:06.758Z,100438.56
2023-04-24T07:57:33.435Z,100445.34
2023-04-24T08:00:00.141Z,100448.06
2023-04-24T08:02:28.230Z,100444.84
2023-04-24T08:04:55.820Z,100457.13
2023-04-24T08:07:23.007Z,100456.78
2023-04-24T08:09:50.982Z,100459.00
2023-04-24T08:12:17.734Z,100464.03
2023-04-24T08:14:44.588Z,100466.75
2023-04-24T08:17:11.565Z,100472.09
2023-04-24T08:19:38.250Z,100473.53
2023-04-24T08:22:05.287Z,100479.31
2023-04-24T08:24:32.027Z,100476.22
2023-04-24T08:26:59.270Z,100467.97
2023-04-24T08:29:26.236Z,100473.44
2023-04-24T08:31:55.561Z,100483.13
2023-04-24T08:34:22.974Z,100483.06
2023-04-24T08:36:49.951Z,100491.00
2023-04-24T08:39:17.002Z,100484.84
2023-04-24T08:41:44.434Z,100480.94
2023-04-24T08:44:12.115Z,100487.75
2023-04-24T08:46:39.060Z,100486.63
2023-04-24T08:49:06.174Z,100489.84
2023-04-24T08:51:32.923Z,100499.22
2023-04-24T08:53:59.561Z,100507.16
2023-04-24T08:56:29.823Z,100502.13
2023-04-24T08:58:56.808Z,100505.34
2023-04-24T09:01:26.260Z,100507.44
2023-04-24T09:03:56.014Z,100510.00
2023-04-24T09:06:23.147Z,100510.16
2023-04-24T09:08:53.324Z,100508.19
2023-04-24T09:11:20.274Z,100517.72
2023-04-24T09:13:47.629Z,100517.72
2023-04-24T09:16:15.810Z,100523.72
2023-04-24T09:18:42.699Z,100526.28
2023-04-24T09:21:10.618Z,100528.63
2023-04-24T09:23:37.343Z,100535.13
2023-04-24T09:26:07.671Z,100533.28
2023-04-24T09:28:38.601Z,100551.94
2023-04-24T09:31:08.091Z,100545.78
2023-04-24T09:33:35.769Z,100544.97
2023-04-24T09:36:04.259Z,100549.66
2023-04-24T09:38:38.058Z,100544.09
2023-04-24T09:41:08.461Z,100549.69
2023-04-24T09:43:36.468Z,100551.09
2023-04-24T09:46:08.349Z,100552.53
2023-04-24T09:48:37.229Z,100564.63
2023-04-24T09:51:07.984Z,100560.47
2023-04-24T09:53:34.739Z,100565.03
2023-04-24T09:56:11.122Z,100560.19
2023-04-24T09:58:38.617Z,100566.13
2023-04-24T10:01:06.632Z,100563.75
2023-04-24T10:03:34.863Z,100571.72
2023-04-24T10:06:03.063Z,100574.50
2023-04-24T10:08:38.340Z,100576.13
2023-04-24T10:11:05.364Z,100577.53
2023-04-24T10:13:33.849Z,100578.00
2023-04-24T10:16:02.022Z,100583.34
2023-04-24T10:18:29.242Z,100586.16
2023-04-24T10:20:56.459Z,100583.81
2023-04-24T10:23:24.290Z,100583.91
2023-04-24T10:25:52.285Z,100592.09
2023-04-24T10:28:20.262Z,100587.16
2023-04-24T10:30:47.546Z,100585.97
2023-04-24T10:33:15.236Z,100594.97
2023-04-24T10:35:45.515Z,100589.72
2023-04-24T10:38:18.028Z,100603.53
2023-04-24T10:40:45.366Z,100601.03
2023-04-24T10:43:17.380Z,100607.47
2023-04-24T10:46:02.455Z,100613.00
2023-04-24T10:48:29.177Z,100614.16
2023-04-24T10:50:55.972Z,100616.31
2023-04-24T10:53:24.968Z,100617.13
2023-04-24T10:55:53.395Z,100617.72
2023-04-24T10:58:24.588Z,100618.78
2023-04-24T11:01:01.156Z,100633.06
2023-04-24T11:03:30.338Z,100629.63
2023-04-24T11:06:03.553Z,100630.91
2023-04-24T11:08:43.901Z,100640.03
2023-04-24T11:11:14.557Z,100645.34
2023-04-24T11:13:59.747Z,100639.66
2023-04-24T11:16:35.410Z,100644.28
2023-04-24T11:19:09.503Z,100645.09
2023-04-24T11:21:50.318Z,100652.34
2023-04-24T11:24:41.072Z,100656.25
2023-04-24T11:27:15.124Z,100658.72
2023-04-24T11:29:46.349Z,100662.34
2023-04-24T11:32:20.608Z,100674.50
2023-04-24T11:34:51.977Z,100657.78
2023-04-24T11:37:18.985Z,100666.53
2023-04-24T11:39:45.822Z,100663.50
2023-04-24T11:42:16.460Z,100666.84
2023-04-24T11:44:44.433Z,100668.03
2023-04-24T11:47:11.103Z,100666.91
2023-04-24T11:49:38.696Z,100664.63
2023-04-24T11:52:06.165Z,100673.50
2023-04-24T11:54:33.119Z,100675.94
2023-04-24T11:56:59.921Z,100674.78
2023-04-24T11:59:26.943Z,100683.09
2023-04-24T12:01:53.601Z,100678.47
2023-04-24T12:04:20.655Z,100690.94
2023-04-24T12:07:06.310Z,100686.78
2023-04-24T12:09:47.921Z,100696.22
2023-04-24T12:12:18.746Z,100693.59
2023-04-24T12:14:50.821Z,100694.84
2023-04-24T12:17:18.026Z,100698.53
2023-04-24T12:19:49.211Z,100699.22
2023-04-24T12:22:16.404Z,100708.47
2023-04-24T12:25:03.744Z,100713.53
2023-04-24T12:27:34.233Z,100707.19
2023-04-24T12:30:03.859Z,100709.41
2023-04-24T12:32:30.731Z,100717.91
2023-04-24T12:34:59.051Z,100715.88
2023-04-24T12:37:27.238Z,100715.63
2023-04-24T12:40:01.591Z,100731.66
2023-04-24T12:42:30.246Z,100728.63
2023-04-24T12:44:59.918Z,100730.34
2023-04-24T12:47:27.224Z,100725.03
2023-04-24T12:49:54.207Z,100738.69
2023-04-24T12:52:24.773Z,100736.84
2023-04-24T12:54:54.699Z,100746.28
2023-04-24T12:57:21.528Z,100742.97
2023-04-24T12:59:48.160Z,100731.06
2023-04-24T13:02:15.515Z,100746.88
2023-04-24T13:04:42.204Z,100747.69
2023-04-24T13:07:08.925Z,100738.00
2023-04-24T13:09:36.003Z,100745.41
2023-04-24T13:12:03.354Z,100745.03
2023-04-24T13:14:30.120Z,100743.09
2023-04-24T13:16:56.867Z,100746.75
2023-04-24T13:19:27.941Z,100751.59
2023-04-24T13:21:58.513Z,100745.94
2023-04-24T13:24:26.179Z,100751.03
2023-04-24T13:26:53.854Z,100748.63
2023-04-24T13:29:20.874Z,100749.44
2023-04-24T13:31:57.645Z,100754.25
2023-04-24T13:34:25.928Z,100750.69
2023-04-24T13:36:54.485Z,100755.06
2023-04-24T13:39:21.873Z,100760.16
2023-04-24T13:41:49.303Z,100765.00
2023-04-24T13:44:17.602Z,100762.81
2023-04-24T13:46:46.156Z,100762.91
2023-04-24T13:49:17.151Z,100757.38
2023-04-24T13:51:44.845Z,100763.03
2023-04-24T13:54:11.572Z,100774.56
2023-04-24T13:56:38.238Z,100774.94
2023-04-24T13:59:04.870Z,100782.53
2023-04-24T14:01:31.953Z,100777.00
2023-04-24T14:03:58.716Z,100776.78
2023-04-24T14:06:25.492Z,100788.75
2023-04-24T14:08:52.524Z,100776.97
2023-04-24T14:11:20.497Z,100774.81
2023-04-24T14:13:47.552Z,100786.34
2023-04-24T14:16:15.152Z,100782.53
2023-04-24T14:18:42.058Z,100791.09
2023-04-24T14:21:08.881Z,100789.91
2023-04-24T14:23:35.609Z,100791.28
2023-04-24T14:26:02.308Z,100790.84
2023-04-24T14:28:29.118Z,100786.34
2023-04-24T14:30:55.970Z,100793.16
2023-04-24T14:33:22.835Z,100788.44
2023-04-24T14:35:50.307Z,100784.84
2023-04-24T14:38:16.983Z,100786.81
2023-04-24T14:43:13.315Z,100784.38
2023-04-24T14:45:41.945Z,100774.22
2023-04-24T14:48:09.685Z,100777.56
2023-04-24T14:50:37.046Z,100784.38
2023-04-24T14:53:03.956Z,100780.00
2023-04-24T14:55:30.751Z,100778.97
2023-04-24T14:57:57.449Z,100782.31
2023-04-24T15:00:27.016Z,100784.72
2023-04-24T15:02:53.911Z,100782.66
2023-04-24T15:05:21.014Z,100786.00
2023-04-24T15:07:47.860Z,100796.84
2023-04-24T15:10:14.588Z,100798.66
2023-04-24T15:12:41.386Z,100801.94
2023-04-24T15:15:09.497Z,100793.94
2023-04-24T15:17:36.372Z,100799.47
2023-04-24T15:20:04.872Z,100800.31
2023-04-24T15:22:31.567Z,100803.97
2023-04-24T15:24:58.409Z,100807.69
2023-04-24T15:27:25.489Z,100811.34
2023-04-24T15:29:52.273Z,100799.94
2023-04-24T15:32:18.930Z,100815.28
2023-04-24T15:34:45.968Z,100803.25
2023-04-24T15:37:13.014Z,100815.72
2023-04-24T15:39:40.190Z,100813.59
2023-04-24T15:42:06.818Z,100816.63
2023-04-24T15:44:33.471Z,100814.06
2023-04-24T15:47:01.660Z,100806.31
2023-04-24T15:49:28.333Z,100808.72
2023-04-24T15:51:55.007Z,100811.56
2023-04-24T15:54:21.747Z,100822.72
2023-04-24T15:56:50.920Z,100819.22
2023-04-24T15:59:18.647Z,100826.47
2023-04-24T16:01:45.373Z,100823.56
2023-04-24T16:04:12.381Z,100834.34
2023-04-24T16:06:39.193Z,100832.84
2023-04-24T16:09:06.242Z,100830.53
2023-04-24T16:11:36.505Z,100848.78
2023-04-24T16:14:03.185Z,100841.97
2023-04-24T16:16:30.010Z,100839.13
2023-04-24T16:18:56.829Z,100836.22
2023-04-24T16:21:23.772Z,100842.44
2023-04-24T16:23:50.746Z,100838.84
2023-04-24T16:26:17.414Z,100843.03
2023-04-24T16:28:44.092Z,100846.72
2023-04-24T16:31:10.828Z,100842.78
2023-04-24T16:33:37.751Z,100853.03
2023-04-24T16:36:06.690Z,100862.53
2023-04-24T16:38:34.245Z,100870.25
2023-04-24T16:41:01.041Z,100856.03
2023-04-24T16:43:27.728Z,100862.41
2023-04-24T16:45:54.610Z,100867.25
2023-04-24T16:48:21.299Z,100872.66
2023-04-24T16:50:47.958Z,100868.84
2023-04-24T16:53:14.599Z,100871.38
2023-04-24T16:55:41.301Z,100881.25
2023-04-24T16:58:07.930Z,100885.88
2023-04-24T17:00:35.450Z,100883.28
2023-04-24T17:03:02.301Z,100881.56
2023-04-24T17:05:29.055Z,100884.47
2023-04-24T17:07:55.744Z,100881.69
2023-04-24T17:10:22.945Z,100880.41
2023-04-24T17:12:50.452Z,100881.03
2023-04-24T17:15:17.497Z,100878.25
2023-04-24T17:17:46.181Z,100885.16
2023-04-24T17:20:22.305Z,100885.75
2023-04-24T17:22:50.333Z,100880.81
2023-04-24T17:25:19.142Z,100881.09
2023-04-24T17:27:45.849Z,100892.81
2023-04-24T17:30:13.164Z,100891.59
2023-04-24T17:32:40.238Z,100887.38
2023-04-24T17:35:07.626Z,100886.75
2023-04-24T17:37:34.428Z,100894.47
2023-04-24T17:40:01.164Z,100889.44
2023-04-24T17:42:27.800Z,100888.16
2023-04-24T17:44:54.444Z,100884.28
2023-04-24T17:47:22.437Z,100886.22
2023-04-24T17:49:49.188Z,100898.75
2023-04-24T17:52:17.698Z,100893.81
2023-04-24T17:54:44.610Z,100900.03
2023-04-24T17:57:11.410Z,100900.81
2023-04-24T17:59:38.106Z,100901.06
2023-04-24T18:02:04.767Z,100895.06
2023-04-24T18:04:31.561Z,100894.69
2023-04-24T18:06:58.422Z,100890.66
2023-04-24T18:09:25.024Z,100893.69
2023-04-24T18:11:51.667Z,100892.56
2023-04-24T18:14:18.433Z,100892.78
2023-04-24T18:16:45.433Z,100899.59
2023-04-24T18:19:12.073Z,100896.84
2023-04-24T18:21:38.722Z,100901.44
2023-04-24T18:24:05.595Z,100903.25
2023-04-24T18:26:32.182Z,100903.03
2023-04-24T18:28:58.882Z,100906.91
2023-04-24T18:31:25.713Z,100901.53
2023-04-24T18:33:54.196Z,100901.16
2023-04-24T18:36:21.269Z,100906.28
2023-04-24T18:38:48.239Z,100921.00
2023-04-24T18:41:17.418Z,100925.63
2023-04-24T18:43:44.628Z,100916.53
2023-04-24T18:46:12.497Z,100921.91
2023-04-24T18:48:39.162Z,100934.81
2023-04-24T18:51:05.919Z,100930.16
2023-04-24T18:53:32.499Z,100932.78
2023-04-24T18:55:59.212Z,100935.06
2023-04-24T18:58:25.983Z,100937.84
2023-04-24T19:00:52.914Z,100946.34
2023-04-24T19:03:20.371Z,100936.47
2023-04-24T19:05:47.098Z,100932.28
2023-04-24T19:08:13.743Z,100939.00
2023-04-24T19:10:43.158Z,100946.06
2023-04-24T19:13:09.828Z,100954.69
2023-04-24T19:15:36.616Z,100955.53
2023-04-24T19:18:03.624Z,100957.53
2023-04-24T19:20:30.312Z,100961.63
2023-04-24T19:22:57.043Z,100966.03
2023-04-24T19:25:23.719Z,100961.69
2023-04-24T19:27:50.492Z,100973.88
2023-04-24T19:30:17.138Z,100973.22
2023-04-24T19:32:43.811Z,100977.16
2023-04-24T19:35:10.541Z,100982.84
2023-04-24T19:37:37.229Z,100977.81
2023-04-24T19:40:04.451Z,100979.59
2023-04-24T19:42:42.619Z,100983.19
2023-04-24T19:45:14.337Z,100985.28
2023-04-24T19:47:41.082Z,100988.22
2023-04-24T19:50:08.264Z,100984.16
2023-04-24T19:52:34.904Z,100988.69
2023-04-24T19:55:01.548Z,100999.84
2023-04-24T19:57:29.645Z,101007.81
2023-04-24T19:59:56.360Z,101004.38
2023-04-24T20:02:23.354Z,101017.50
2023-04-24T20:04:50.379Z,101014.09
2023-04-24T20:07:17.424Z,101027.22
2023-04-24T20:09:44.101Z,101020.25
2023-04-24T20:12:11.150Z,101023.63
2023-04-24T20:14:37.799Z,101017.75
2023-04-24T20:17:04.415Z,101032.50
2023-04-24T20:19:31.290Z,101036.22
2023-04-24T20:21:58.046Z,101032.81
2023-04-24T20:24:24.816Z,101029.38
2023-04-24T20:26:51.509Z,101033.91
2023-04-24T20:29:18.220Z,101040.69
2023-04-24T20:31:44.908Z,101032.56
2023-04-24T20:34:11.996Z,101029.31
2023-04-24T20:36:38.890Z,101029.13
2023-04-24T20:39:06.851Z,101028.13
2023-04-24T20:41:34.187Z,101024.59
2023-04-24T20:44:01.224Z,101033.47
2023-04-24T20:46:28.197Z,101029.22
2023-04-24T20:48:54.879Z,101035.34
2023-04-24T20:51:21.648Z,101037.13
2023-04-24T20:53:49.707Z,101035.81
2023-04-24T20:56:17.337Z,101031.44
2023-04-24T20:58:49.984Z,101035.63
2023-04-24T21:01:16.973Z,101036.88
2023-04-24T21:03:43.811Z,101035.41
2023-04-24T21:06:11.212Z,101039.59
2023-04-24T21:08:38.069Z,101044.56
2023-04-24T21:11:04.911Z,101045.53
2023-04-24T21:13:31.563Z,101053.91
2023-04-24T21:15:58.455Z,101042.22
2023-04-24T21:18:26.225Z,101054.16
2023-04-24T21:20:53.555Z,101057.84
2023-04-24T21:23:20.385Z,101066.41
2023-04-24T21:25:47.585Z,101052.44
2023-04-24T21:28:14.276Z,101063.78
2023-04-24T21:30:40.990Z,101058.91
2023-04-24T21:33:07.844Z,101062.75
2023-04-24T21:35:35.271Z,101057.91
2023-04-24T21:38:01.985Z,101061.78
2023-04-24T21:40:29.188Z,101062.38
2023-04-24T21:42:55.886Z,101059.63
2023-04-24T21:45:22.696Z,101055.25
2023-04-24T21:47:49.426Z,101059.50
2023-04-24T21:50:16.272Z,101058.06
2023-04-24T21:52:42.941Z,101060.41
2023-04-24T21:55:09.739Z,101062.53
2023-04-24T21:57:36.818Z,101070.16
2023-04-24T22:00:06.544Z,101075.34
2023-04-24T22:02:34.050Z,101073.59
2023-04-24T22:05:03.236Z,101060.03
2023-04-24T22:07:30.663Z,101059.63
2023-04-24T22:09:57.277Z,101056.53
2023-04-24T22:12:23.927Z,101060.28
2023-04-24T22:14:50.858Z,101059.16
2023-04-24T22:17:17.541Z,101065.69
2023-04-24T22:19:44.119Z,101083.19
2023-04-24T22:22:10.805Z,101079.31
2023-04-24T22:24:37.520Z,101076.03
2023-04-24T22:27:04.284Z,101074.09
2023-04-24T22:29:30.982Z,101072.78
2023-04-24T22:31:57.845Z,101065.97
2023-04-24T22:34:24.524Z,101070.16
2023-04-24T22:36:51.295Z,101070.16
2023-04-24T22:39:17.984Z,101072.44
2023-04-24T22:41:44.632Z,101062.53
2023-04-24T22:44:11.605Z,101078.56
2023-04-24T22:46:38.417Z,101060.94
2023-04-24T22:49:05.227Z,101064.78
2023-04-24T22:51:35.264Z,101057.34
2023-04-24T22:54:04.338Z,101062.53
2023-04-24T22:56:31.814Z,101061.91
2023-04-24T22:58:59.211Z,101074.84
2023-04-24T23:01:29.305Z,101072.09
2023-04-24T23:03:56.106Z,101066.09
2023-04-24T23:06:22.803Z,101065.28
2023-04-24T23:08:49.517Z,101081.31
2023-04-24T23:11:16.131Z,101076.13
2023-04-24T23:13:42.783Z,101067.97
2023-04-24T23:16:09.422Z,101083.69
2023-04-24T23:18:36.291Z,101081.22
2023-04-24T23:21:03.561Z,101081.69
2023-04-24T23:23:30.252Z,101086.16
2023-04-24T23:25:57.045Z,101086.47
2023-04-24T23:28:23.688Z,101089.03
2023-04-24T23:30:50.393Z,101080.91
2023-04-24T23:33:17.023Z,101084.75
2023-04-24T23:35:43.725Z,101081.53
2023-04-24T23:38:11.107Z,101090.09
2023-04-24T23:40:37.828Z,101084.19
2023-04-24T23:43:08.132Z,101094.41
2023-04-24T23:45:35.779Z,101095.19
2023-04-24T23:48:03.414Z,101085.81
2023-04-24T23:50:30.197Z,101084.00
2023-04-24T23:52:56.964Z,101084.25
2023-04-24T23:55:23.675Z,101092.41
2023-04-24T23:57:50.439Z,101094.94
